createdAt,value
2019-03-11T00:02:04.860Z,99.90
2019-03-11T00:04:34.424Z,99.90
2019-03-11T00:07:03.924Z,99.90
2019-03-11T00:09:52.419Z,99.90
2019-03-11T00:12:40.945Z,99.90
2019-03-11T00:15:10.675Z,99.90
2019-03-11T00:17:40.158Z,99.90
2019-03-11T00:20:10.583Z,99.90
2019-03-11T00:22:59.132Z,99.90
2019-03-11T00:25:47.613Z,99.90
2019-03-11T00:28:36.174Z,99.90
2019-03-11T00:31:05.638Z,99.90
2019-03-11T00:33:54.167Z,99.90
2019-03-11T00:36:42.709Z,99.90
2019-03-11T00:39:12.185Z,99.90
2019-03-11T00:42:00.714Z,99.90
2019-03-11T00:44:49.236Z,99.90
2019-03-11T00:47:37.763Z,99.90
2019-03-11T00:50:08.202Z,99.90
2019-03-11T00:52:37.711Z,99.90
2019-03-11T00:55:07.681Z,99.90
2019-03-11T00:57:56.220Z,99.90
2019-03-11T01:00:44.719Z,99.90
2019-03-11T01:03:33.251Z,99.90
2019-03-11T01:06:21.759Z,99.90
2019-03-11T01:08:51.293Z,99.90
2019-03-11T01:11:39.772Z,99.90
2019-03-11T01:14:20.465Z,99.90
2019-03-11T01:16:49.945Z,99.90
2019-03-11T01:19:38.484Z,99.90
2019-03-11T01:22:26.988Z,99.90
2019-03-11T01:24:56.468Z,99.90
2019-03-11T01:27:44.964Z,99.90
2019-03-11T01:30:33.500Z,99.90
2019-03-11T01:33:03.055Z,99.90
2019-03-11T01:35:32.513Z,99.90
2019-03-11T01:38:02.005Z,99.90
2019-03-11T01:40:31.491Z,99.90
2019-03-11T01:43:00.942Z,99.90
2019-03-11T01:45:30.484Z,99.90
2019-03-11T01:47:59.984Z,99.90
2019-03-11T01:50:29.425Z,99.90
2019-03-11T01:52:58.968Z,99.90
2019-03-11T01:55:28.412Z,99.90
2019-03-11T01:57:57.932Z,99.90
2019-03-11T02:00:27.580Z,99.90
2019-03-11T02:02:57.164Z,99.90
2019-03-11T02:05:26.632Z,99.90
2019-03-11T02:07:56.105Z,99.90
2019-03-11T02:10:25.603Z,99.90
2019-03-11T02:12:55.047Z,99.90
2019-03-11T02:15:24.531Z,99.90
2019-03-11T02:17:54.004Z,99.90
2019-03-11T02:20:23.457Z,99.90
2019-03-11T02:22:53.002Z,99.90
2019-03-11T02:25:22.440Z,99.90
2019-03-11T02:27:52.017Z,99.90
2019-03-11T02:30:21.553Z,99.90
2019-03-11T02:32:51.152Z,99.90
2019-03-11T02:35:28.098Z,99.90
2019-03-11T02:37:57.665Z,99.90
2019-03-11T02:40:27.686Z,99.90
2019-03-11T02:42:57.145Z,99.90
2019-03-11T02:45:26.639Z,99.90
2019-03-11T02:47:56.080Z,99.90
2019-03-11T02:50:25.536Z,99.90
2019-03-11T02:52:55.050Z,99.90
2019-03-11T02:55:24.520Z,99.90
2019-03-11T02:57:54.000Z,99.90
2019-03-11T03:00:23.481Z,99.90
2019-03-11T03:03:14.917Z,99.90
2019-03-11T03:05:53.994Z,99.90
2019-03-11T03:08:23.574Z,99.90
2019-03-11T03:10:53.106Z,99.90
2019-03-11T03:13:22.604Z,99.90
2019-03-11T03:15:52.094Z,99.90
2019-03-11T03:18:21.538Z,99.90
2019-03-11T03:20:51.049Z,99.90
2019-03-11T03:23:20.521Z,99.90
2019-03-11T03:25:50.018Z,99.90
2019-03-11T03:28:19.470Z,99.90
2019-03-11T03:30:49.029Z,99.90
2019-03-11T03:33:18.553Z,99.90
2019-03-11T03:35:48.039Z,99.90
2019-03-11T03:38:29.696Z,99.90
2019-03-11T03:40:48.629Z,99.90
2019-03-11T03:43:18.127Z,99.90
2019-03-11T03:45:47.820Z,99.90
2019-03-11T03:48:17.300Z,99.90
2019-03-11T03:50:46.803Z,99.90
2019-03-11T03:53:16.261Z,99.90
2019-03-11T03:55:45.753Z,99.90
2019-03-11T03:58:15.209Z,99.90
2019-03-11T04:00:44.658Z,99.90
2019-03-11T04:03:14.129Z,99.90
2019-03-11T04:05:43.691Z,99.90
2019-03-11T04:08:13.212Z,99.90
2019-03-11T04:10:42.666Z,99.90
2019-03-11T04:13:12.100Z,99.90
2019-03-11T04:15:41.586Z,99.90
2019-03-11T04:18:11.131Z,99.90
2019-03-11T04:20:40.589Z,99.90
2019-03-11T04:23:10.059Z,99.90
2019-03-11T04:25:39.602Z,99.90
2019-03-11T04:28:09.080Z,99.90
2019-03-11T04:30:38.529Z,99.90
2019-03-11T04:33:08.044Z,99.90
2019-03-11T04:35:37.493Z,99.90
2019-03-11T04:38:06.969Z,99.90
2019-03-11T04:40:36.429Z,99.90
2019-03-11T04:43:05.877Z,99.90
2019-03-11T04:45:35.364Z,99.90
2019-03-11T04:48:04.854Z,99.90
2019-03-11T04:50:34.323Z,99.90
2019-03-11T04:53:03.776Z,99.90
2019-03-11T04:55:33.227Z,99.90
2019-03-11T04:58:02.705Z,99.90
2019-03-11T05:00:32.172Z,99.90
2019-03-11T05:03:01.730Z,99.90
2019-03-11T05:05:31.214Z,99.90
2019-03-11T05:08:00.657Z,99.90
2019-03-11T05:10:30.096Z,99.90
2019-03-11T05:12:59.599Z,99.90
2019-03-11T05:15:29.078Z,99.90
2019-03-11T05:17:58.766Z,99.90
2019-03-11T05:20:28.264Z,99.90
2019-03-11T05:22:57.700Z,99.90
2019-03-11T05:25:27.202Z,99.90
2019-03-11T05:27:56.647Z,99.90
2019-03-11T05:30:26.143Z,99.90
2019-03-11T05:32:55.621Z,99.90
2019-03-11T05:35:25.152Z,99.90
2019-03-11T05:37:54.633Z,99.90
2019-03-11T05:40:24.116Z,99.90
2019-03-11T05:42:53.573Z,99.90
2019-03-11T05:45:23.153Z,99.90
2019-03-11T05:47:52.605Z,99.90
2019-03-11T05:50:22.205Z,99.90
2019-03-11T05:52:51.687Z,99.90
2019-03-11T05:55:21.164Z,99.90
2019-03-11T05:57:50.621Z,99.90
2019-03-11T06:00:23.348Z,99.90
2019-03-11T06:02:52.812Z,99.90
2019-03-11T06:05:22.288Z,99.90
2019-03-11T06:07:51.741Z,99.90
2019-03-11T06:10:21.228Z,99.90
2019-03-11T06:12:50.676Z,99.90
2019-03-11T06:15:20.134Z,99.90
2019-03-11T06:17:49.787Z,99.90
2019-03-11T06:20:41.293Z,99.90
2019-03-11T06:23:11.511Z,99.90
2019-03-11T06:25:42.161Z,99.90
2019-03-11T06:28:11.646Z,99.90
2019-03-11T06:30:44.110Z,99.90
2019-03-11T06:33:13.573Z,99.90
2019-03-11T06:35:43.076Z,99.90
2019-03-11T06:38:12.531Z,99.90
2019-03-11T06:40:42.350Z,99.90
2019-03-11T06:43:11.797Z,99.90
2019-03-11T06:45:41.248Z,99.90
2019-03-11T06:48:10.764Z,99.90
2019-03-11T06:50:40.242Z,99.90
2019-03-11T06:53:09.696Z,99.90
2019-03-11T06:55:39.187Z,99.90
2019-03-11T06:58:08.645Z,99.90
2019-03-11T07:00:38.130Z,99.90
2019-03-11T07:03:07.597Z,99.90
2019-03-11T07:05:37.076Z,99.90
2019-03-11T07:08:08.985Z,99.90
2019-03-11T07:10:39.599Z,99.90
2019-03-11T07:13:09.174Z,99.90
2019-03-11T07:15:38.664Z,99.90
2019-03-11T07:18:08.109Z,99.90
2019-03-11T07:20:37.637Z,99.90
2019-03-11T07:23:07.097Z,99.90
2019-03-11T07:25:36.605Z,99.90
2019-03-11T07:28:06.086Z,99.90
2019-03-11T07:30:35.531Z,99.90
2019-03-11T07:33:06.964Z,99.90
2019-03-11T07:35:36.153Z,99.90
2019-03-11T07:38:05.609Z,99.90
2019-03-11T07:40:35.059Z,99.90
2019-03-11T07:43:04.553Z,99.90
2019-03-11T07:45:34.006Z,99.90
2019-03-11T07:48:03.488Z,99.90
2019-03-11T07:50:32.940Z,99.90
2019-03-11T07:53:02.437Z,99.90
2019-03-11T07:55:31.901Z,99.90
2019-03-11T07:58:01.396Z,99.90
2019-03-11T08:00:30.849Z,99.90
2019-03-11T08:03:00.332Z,99.90
2019-03-11T08:05:29.828Z,99.90
2019-03-11T08:07:59.317Z,99.90
2019-03-11T08:10:28.742Z,99.90
2019-03-11T08:12:58.236Z,99.90
2019-03-11T08:15:28.594Z,99.90
2019-03-11T08:17:58.096Z,99.90
2019-03-11T08:20:27.583Z,99.90
2019-03-11T08:22:57.093Z,99.90
2019-03-11T08:25:26.550Z,99.90
2019-03-11T08:27:56.028Z,99.90
2019-03-11T08:30:25.527Z,99.90
2019-03-11T08:32:55.002Z,99.90
2019-03-11T08:35:24.826Z,99.90
2019-03-11T08:37:54.282Z,99.90
2019-03-11T08:40:23.738Z,99.90
2019-03-11T08:42:53.235Z,99.90
2019-03-11T08:45:22.706Z,99.90
2019-03-11T08:47:52.177Z,99.90
2019-03-11T08:50:21.641Z,99.90
2019-03-11T08:52:51.817Z,99.90
2019-03-11T08:55:21.314Z,99.90
2019-03-11T08:57:50.721Z,99.90
2019-03-11T09:00:23.733Z,99.90
2019-03-11T09:02:53.199Z,99.90
2019-03-11T09:05:22.738Z,99.90
2019-03-11T09:07:52.235Z,99.90
2019-03-11T09:10:21.719Z,99.90
2019-03-11T09:12:51.169Z,99.90
2019-03-11T09:15:20.747Z,99.90
2019-03-11T09:17:50.329Z,99.90
2019-03-11T09:20:20.230Z,99.90
2019-03-11T09:22:49.716Z,99.90
2019-03-11T09:25:19.184Z,99.90
2019-03-11T09:27:50.835Z,99.90
2019-03-11T09:30:19.881Z,99.90
2019-03-11T09:32:49.380Z,99.90
2019-03-11T09:35:20.170Z,99.90
2019-03-11T09:37:49.835Z,99.90
2019-03-11T09:40:19.332Z,99.90
2019-03-11T09:42:48.791Z,99.90
2019-03-11T09:45:18.589Z,99.90
2019-03-11T09:47:48.154Z,99.90
2019-03-11T09:50:17.738Z,99.90
2019-03-11T09:52:47.220Z,99.90
2019-03-11T09:55:16.713Z,99.90
2019-03-11T09:57:46.229Z,99.90
2019-03-11T10:00:18.180Z,99.90
2019-03-11T10:02:52.350Z,99.90
2019-03-11T10:05:18.777Z,99.90
2019-03-11T10:07:48.245Z,99.90
2019-03-11T10:10:18.013Z,99.90
2019-03-11T10:12:47.483Z,99.90
2019-03-11T10:15:17.913Z,99.90
2019-03-11T10:17:47.367Z,99.90
2019-03-11T10:20:17.371Z,99.90
2019-03-11T10:22:46.921Z,99.90
2019-03-11T10:25:16.490Z,99.90
2019-03-11T10:27:45.982Z,99.90
2019-03-11T10:30:17.724Z,99.90
2019-03-11T10:32:47.278Z,99.90
2019-03-11T10:35:31.552Z,99.90
2019-03-11T10:37:48.257Z,99.90
2019-03-11T10:40:19.216Z,99.90
2019-03-11T10:42:48.667Z,99.90
2019-03-11T10:45:26.529Z,99.90
2019-03-11T10:47:49.376Z,99.90
2019-03-11T10:50:19.036Z,99.90
2019-03-11T10:52:48.572Z,99.90
2019-03-11T10:55:18.055Z,99.90
2019-03-11T10:57:47.657Z,99.90
2019-03-11T11:00:19.845Z,99.90
2019-03-11T11:02:49.524Z,99.90
2019-03-11T11:05:19.093Z,99.90
2019-03-11T11:07:48.556Z,99.90
2019-03-11T11:10:18.089Z,99.90
2019-03-11T11:12:47.617Z,99.90
2019-03-11T11:15:18.653Z,99.70
2019-03-11T11:17:48.112Z,97.10
2019-03-11T11:20:18.408Z,97.40
2019-03-11T11:22:47.923Z,96.50
2019-03-11T11:25:18.328Z,96.40
2019-03-11T11:27:47.783Z,94.40
2019-03-11T11:30:19.130Z,95.30
2019-03-11T11:32:48.645Z,91.10
2019-03-11T11:35:18.625Z,93.50
2019-03-11T11:37:48.110Z,92.20
2019-03-11T11:40:19.803Z,91.80
2019-03-11T11:42:49.257Z,92.60
2019-03-11T11:45:19.180Z,94.80
2019-03-11T11:47:48.738Z,95.90
2019-03-11T11:50:19.128Z,96.10
2019-03-11T11:52:48.692Z,95.60
2019-03-11T11:55:18.325Z,96.60
2019-03-11T11:57:47.776Z,94.70
2019-03-11T12:00:22.921Z,94.60
2019-03-11T12:02:52.385Z,94.60
2019-03-11T12:05:21.976Z,96.80
2019-03-11T12:07:51.557Z,96.90
2019-03-11T12:10:21.348Z,95.10
2019-03-11T12:12:50.859Z,94.80
2019-03-11T12:15:20.339Z,95.50
2019-03-11T12:17:50.089Z,95.00
2019-03-11T12:20:21.050Z,94.80
2019-03-11T12:22:50.582Z,95.70
2019-03-11T12:25:20.073Z,96.80
2019-03-11T12:27:53.975Z,97.00
2019-03-11T12:30:22.693Z,99.00
2019-03-11T12:32:52.281Z,99.90
2019-03-11T12:35:21.918Z,99.90
2019-03-11T12:37:51.504Z,99.90
2019-03-11T12:40:21.220Z,99.90
2019-03-11T12:42:50.789Z,99.90
2019-03-11T12:45:20.372Z,99.90
2019-03-11T12:47:49.855Z,99.90
2019-03-11T12:50:20.050Z,99.90
2019-03-11T12:52:49.515Z,99.90
2019-03-11T12:55:21.404Z,99.90
2019-03-11T12:57:50.288Z,99.90
2019-03-11T13:00:20.196Z,99.90
2019-03-11T13:02:49.679Z,99.90
2019-03-11T13:05:19.385Z,99.90
2019-03-11T13:07:48.864Z,99.90
2019-03-11T13:10:19.544Z,99.90
2019-03-11T13:12:49.116Z,99.90
2019-03-11T13:15:18.893Z,99.90
2019-03-11T13:17:48.747Z,99.90
2019-03-11T13:20:24.726Z,99.90
2019-03-11T13:22:54.316Z,99.90
2019-03-11T13:25:23.815Z,99.90
2019-03-11T13:27:53.316Z,99.90
2019-03-11T13:30:22.793Z,99.90
2019-03-11T13:32:52.255Z,99.90
2019-03-11T13:35:21.748Z,99.90
2019-03-11T13:37:51.230Z,99.90
2019-03-11T13:40:39.756Z,99.90
2019-03-11T13:43:28.277Z,99.90
2019-03-11T13:45:57.790Z,99.90
2019-03-11T13:51:40.544Z,99.90
2019-03-11T13:54:29.072Z,99.90
2019-03-11T13:56:58.947Z,99.90
2019-03-11T13:59:47.456Z,99.90
2019-03-11T14:02:36.004Z,99.90
2019-03-11T14:05:05.757Z,99.90
2019-03-11T14:07:54.275Z,99.90
2019-03-11T14:10:42.837Z,99.90
2019-03-11T14:13:31.340Z,99.90
2019-03-11T14:16:00.859Z,99.90
2019-03-11T14:18:49.449Z,99.90
2019-03-11T14:21:37.991Z,99.90
2019-03-11T14:24:26.584Z,99.90
2019-03-11T14:27:15.127Z,99.90
2019-03-11T14:30:03.752Z,99.90
2019-03-11T14:33:04.872Z,99.90
2019-03-11T14:35:43.165Z,99.90
2019-03-11T14:38:31.731Z,99.90
2019-03-11T14:41:13.242Z,99.90
2019-03-11T14:43:54.426Z,99.90
2019-03-11T14:46:35.420Z,99.90
2019-03-11T14:49:16.480Z,99.90
2019-03-11T14:51:57.445Z,99.90
2019-03-11T14:54:38.262Z,99.90
2019-03-11T14:57:19.807Z,99.90
2019-03-11T15:00:01.929Z,99.90
2019-03-11T15:02:43.085Z,99.90
2019-03-11T15:05:24.433Z,99.90
2019-03-11T15:08:05.361Z,99.90
2019-03-11T15:10:46.076Z,99.90
2019-03-11T15:13:27.787Z,99.90
2019-03-11T15:16:08.505Z,99.90
2019-03-11T15:18:38.064Z,99.90
2019-03-11T15:21:26.575Z,99.90
2019-03-11T15:24:15.135Z,99.90
2019-03-11T15:26:56.438Z,99.90
2019-03-11T15:29:26.076Z,99.90
2019-03-11T15:32:14.592Z,99.90
2019-03-11T15:35:03.145Z,99.90
2019-03-11T15:37:51.665Z,99.90
2019-03-11T15:40:21.237Z,99.90
2019-03-11T15:43:09.757Z,99.90
2019-03-11T15:45:39.338Z,99.90
2019-03-11T15:48:27.897Z,99.90
2019-03-11T15:51:16.453Z,99.90
2019-03-11T15:54:04.975Z,99.90
2019-03-11T15:56:34.464Z,99.90
2019-03-11T15:59:23.034Z,99.90
2019-03-11T16:05:25.083Z,99.90
2019-03-11T16:08:13.551Z,99.90
2019-03-11T16:11:02.114Z,99.90
2019-03-11T16:13:31.666Z,99.90
2019-03-11T16:16:20.213Z,99.90
2019-03-11T16:21:56.209Z,99.90
2019-03-11T16:24:37.185Z,99.90
2019-03-11T16:27:17.981Z,99.90
2019-03-11T16:29:58.952Z,99.90
2019-03-11T16:32:57.244Z,99.90
2019-03-11T16:35:23.353Z,99.90
2019-03-11T16:38:04.708Z,99.90
2019-03-11T16:40:45.597Z,99.90
2019-03-11T16:43:26.761Z,99.90
2019-03-11T16:46:07.496Z,99.90
2019-03-11T16:48:37.048Z,99.90
2019-03-11T16:51:25.546Z,99.90
2019-03-11T16:57:07.784Z,99.90
2019-03-11T16:59:37.283Z,99.90
2019-03-11T17:02:25.830Z,99.90
2019-03-11T17:05:14.353Z,99.90
2019-03-11T17:10:38.158Z,99.90
2019-03-11T17:13:26.697Z,99.90
2019-03-11T17:16:15.209Z,99.90
2019-03-11T17:19:03.831Z,99.90
2019-03-11T17:21:33.816Z,99.90
2019-03-11T17:24:22.558Z,99.90
2019-03-11T17:27:11.083Z,99.90
2019-03-11T17:29:40.593Z,99.90
2019-03-11T17:35:39.066Z,99.90
2019-03-11T17:38:27.580Z,99.90
2019-03-11T17:41:16.112Z,99.90
2019-03-11T17:44:04.608Z,99.90
2019-03-11T17:46:34.117Z,99.90
2019-03-11T17:49:22.694Z,99.90
2019-03-11T17:52:11.230Z,99.90
2019-03-11T17:54:40.838Z,99.90
2019-03-11T17:57:29.340Z,99.90
2019-03-11T18:00:38.665Z,99.90
2019-03-11T18:03:27.273Z,99.90
2019-03-11T18:06:15.840Z,99.90
2019-03-11T18:09:24.695Z,99.90
2019-03-11T18:15:07.636Z,99.90
2019-03-11T18:17:37.099Z,99.90
2019-03-11T18:20:25.634Z,99.90
2019-03-11T18:23:07.118Z,99.90
2019-03-11T18:25:36.630Z,99.90
2019-03-11T18:28:25.172Z,99.90
2019-03-11T18:31:13.660Z,99.90
2019-03-11T18:36:37.724Z,99.90
2019-03-11T18:39:26.278Z,99.90
2019-03-11T18:45:08.825Z,99.90
2019-03-11T18:47:38.326Z,99.90
2019-03-11T18:50:26.905Z,99.90
2019-03-11T18:53:15.415Z,99.90
2019-03-11T18:56:03.957Z,99.90
2019-03-11T18:58:33.460Z,99.90
2019-03-11T19:01:22.034Z,99.90
2019-03-11T19:04:10.533Z,99.90
2019-03-11T19:06:40.043Z,99.90
2019-03-11T19:09:28.586Z,99.90
2019-03-11T19:15:11.497Z,99.90
2019-03-11T19:17:40.998Z,99.90
2019-03-11T19:20:29.590Z,99.90
2019-03-11T19:23:10.912Z,99.90
2019-03-11T19:25:51.812Z,99.90
2019-03-11T19:28:32.461Z,99.90
2019-03-11T19:31:13.323Z,99.90
2019-03-11T19:33:42.897Z,99.90
2019-03-11T19:36:12.399Z,99.90
2019-03-11T19:38:42.058Z,99.90
2019-03-11T19:41:12.046Z,99.90
2019-03-11T19:43:41.640Z,99.90
2019-03-11T19:46:11.113Z,99.90
2019-03-11T19:48:43.342Z,99.90
2019-03-11T19:51:11.701Z,99.90
2019-03-11T19:53:41.199Z,99.90
2019-03-11T19:56:10.742Z,99.90
2019-03-11T19:58:40.235Z,99.90
2019-03-11T20:01:09.684Z,99.90
2019-03-11T20:03:39.165Z,99.90
2019-03-11T20:06:08.644Z,99.90
2019-03-11T20:08:38.126Z,99.90
2019-03-11T20:11:07.691Z,99.90
2019-03-11T20:13:37.178Z,99.90
2019-03-11T20:16:06.804Z,99.90
2019-03-11T20:18:36.354Z,99.90
2019-03-11T20:21:05.984Z,99.90
2019-03-11T20:23:37.996Z,99.90
2019-03-11T20:26:06.779Z,99.90
2019-03-11T20:28:36.466Z,99.90
2019-03-11T20:31:05.954Z,99.90
2019-03-11T20:33:35.384Z,99.90
2019-03-11T20:36:04.896Z,99.90
2019-03-11T20:38:34.381Z,99.90
2019-03-11T20:41:03.887Z,99.90
2019-03-11T20:43:33.339Z,99.90
2019-03-11T20:46:02.851Z,99.90
2019-03-11T20:48:32.329Z,99.90
2019-03-11T20:51:01.773Z,99.90
2019-03-11T20:53:31.219Z,99.90
2019-03-11T20:56:00.745Z,99.90
2019-03-11T20:58:30.390Z,99.90
2019-03-11T21:01:04.131Z,99.90
2019-03-11T21:03:33.635Z,99.90
2019-03-11T21:06:03.686Z,99.90
2019-03-11T21:08:33.124Z,99.90
2019-03-11T21:11:02.546Z,99.90
2019-03-11T21:13:32.111Z,99.90
2019-03-11T21:16:01.540Z,99.90
2019-03-11T21:18:31.055Z,99.90
2019-03-11T21:21:05.056Z,99.90
2019-03-11T21:23:31.653Z,99.90
2019-03-11T21:26:01.196Z,99.90
2019-03-11T21:28:30.735Z,99.90
2019-03-11T21:31:00.365Z,99.90
2019-03-11T21:33:29.902Z,99.90
2019-03-11T21:35:59.330Z,99.90
2019-03-11T21:38:28.841Z,99.90
2019-03-11T21:40:58.277Z,99.90
2019-03-11T21:43:27.782Z,99.90
2019-03-11T21:45:57.361Z,99.90
2019-03-11T21:48:26.954Z,99.90
2019-03-11T21:50:56.415Z,99.90
2019-03-11T21:53:25.860Z,99.90
2019-03-11T21:55:55.324Z,99.90
2019-03-11T21:58:24.863Z,99.90
2019-03-11T22:00:54.277Z,99.90
2019-03-11T22:03:23.746Z,99.90
2019-03-11T22:05:53.284Z,99.90
2019-03-11T22:08:22.753Z,99.90
2019-03-11T22:10:52.212Z,99.90
2019-03-11T22:13:21.720Z,99.90
2019-03-11T22:15:51.176Z,99.90
2019-03-11T22:18:20.669Z,99.90
2019-03-11T22:20:50.165Z,99.90
2019-03-11T22:23:20.017Z,99.90
2019-03-11T22:25:49.477Z,99.90
2019-03-11T22:28:19.964Z,99.90
2019-03-11T22:30:49.496Z,99.90
2019-03-11T22:33:18.976Z,99.90
2019-03-11T22:35:48.433Z,99.90
2019-03-11T22:38:17.914Z,99.90
2019-03-11T22:40:47.544Z,99.90
2019-03-11T22:43:16.996Z,99.90
2019-03-11T22:45:46.448Z,99.90
2019-03-11T22:48:15.903Z,99.90
2019-03-11T22:50:45.387Z,99.90
2019-03-11T22:53:14.841Z,99.90
2019-03-11T22:55:44.319Z,99.90
2019-03-11T22:58:13.782Z,99.90
2019-03-11T23:00:59.274Z,99.90
2019-03-11T23:03:28.753Z,99.90
2019-03-11T23:05:58.739Z,99.90
2019-03-11T23:08:28.309Z,99.90
2019-03-11T23:10:57.754Z,99.90
2019-03-11T23:13:27.244Z,99.90
2019-03-11T23:15:56.722Z,99.90
2019-03-11T23:18:26.225Z,99.90
2019-03-11T23:20:55.681Z,99.90
2019-03-11T23:23:25.212Z,99.90
2019-03-11T23:25:54.701Z,99.90
2019-03-11T23:28:24.157Z,99.90
2019-03-11T23:30:53.668Z,99.90
2019-03-11T23:33:23.159Z,99.90
2019-03-11T23:35:52.606Z,99.90
2019-03-11T23:38:22.091Z,99.90
2019-03-11T23:40:51.549Z,99.90
2019-03-11T23:43:21.036Z,99.90
2019-03-11T23:45:50.625Z,99.90
2019-03-11T23:48:20.075Z,99.90
2019-03-11T23:50:49.564Z,99.90
2019-03-11T23:53:19.032Z,99.90
2019-03-11T23:55:48.484Z,99.90
2019-03-11T23:58:17.964Z,99.90
